Aeroporto :
LOGIN :

Iscrizione | Disclaimer

   EN    FR    IT 

 










Sommario :    VFR   VFR Marginale   IFR   IFR Intensivo   IFR Molto Intensivo
Visibilità : 
Base nubi : 
>= 8 km
>= 3000ft
5 / 8 km
1000 / 3000 ft
1500m / 5 km
500 / 1000 ft
800 / 1500m
200 / 500 ft
< 800m
< 200 ft
Simboli :   Temporali  Nebbia  Neve Forte  Precipitazioni Forti  Vento > 20 kt
SIGMETs :   Varie  Temporali  Ghiacco  Turbolenza  Onda orograficha  Ceneri Vulcaniche






- Altitudine del aeroporto : 20 ft


EBFN - Koksijde

ULTIMO METAR :
  • 292025Z AUTO 22008KT 8000 NCD 05/03 Q1013 BLU

METARs OBSOLETI :
  • 291955Z AUTO 22008KT 9000 FEW140/// SCT160/// 05/03 Q1013 BLU
  • 291925Z AUTO 22008KT 9999 BKN160/// BKN210/// 05/04 Q1013 BLU
  • 291855Z AUTO 22008KT 9999 BKN170/// BKN210/// 05/03 Q1013 BLU
  • 291825Z AUTO 24008KT 9999 BKN170/// 06/04 Q1013 BLU
  • 291755Z AUTO 24010KT 9999 FEW170/// BKN200/// 06/04 Q1012 BLU

TAF TAF EBFN
Valido dal 29 a 19 ore il 30 a 07 ore UTC


291541Z 2919/3007 23014KT 9999 FEW020 SCT220
PROB30
TEMPO 2923/3007 6000 SCT013



MetMap, La meteo Aeronautica in un colpo d'occhio ! - Copyright ORBIFLY Dicembre 2007 - Disclaimer

ORBIFLY MET'MAP TEAM :

Programmazione e sviluppo : Alexandra Zaïnal
Concezione : Baudouin d'Aumeries
Aiuto per la programmazione : Marc-Olivier Méhu
Supporto tecnico e logistico : Manuel Goepfert
Aiuto per la traduzione : Arnaldo La Scala

Contatto : metmap@orbifly.com




FONTI E CREDITI :

   NOAA